Weather at Knockrome Airstrip

Public forecast

Using degrees Celsius for public forecast. Weather courtesy of forecast.io.

Closest aviation weather report (METAR) to Knockrome Airstrip

Report is more than 6 hours old.

Closest report is Islay Airport, 16.1 nm (29.8 km) SW.

2022/11/14 15:20 (retrieved 2 years ago)

EGPI 141520Z 12006KT 9999 FEW025 10/09 Q1000

Closest aviation forecast (TAF) to Knockrome Airstrip

Forecast is more than 12 hours old.

Closest forecast is Glasgow International Airport, 50.1 nm (92.9 km) E.

2023/02/22 18:00 (retrieved 1 year ago)

TAF EGPF 221653Z 2218/2318 34010KT CAVOK BECMG 2218/2221 28004KT PROB40 2303/2310 7000 BECMG 2310/2313 27014KT BKN014 PROB30 TEMPO 2315/2318 7000 -RA